Terminal Aerodrome Forecast
Issued by NWS

Home | Current Version | Previous Version | Text Only | Print | Product List | Glossary On
Versions: 1 2 3 4 5 6 7 8 9 10 11 12 13 14 15 16
000
FTUS44 KSJT 182300
TAFSOA
TAF
KSOA 182337Z 1900/1924 VRB03KT P6SM OVC150
     FM190300 05003KT P6SM VCSH OVC015
     FM190600 04004KT 3SM -RA BR OVC004
     FM191100 03004KT 3SM BR OVC007
     FM191900 03006KT 6SM BR BKN015 OVC040=

USA.gov is the U.S. government's official web portal to all federal, state and local government web resources and services.